Time;durP1;ratioP1;P1;durP2;ratioP2;P2;SDS_P1;SDS_P2;PMS_P1;PMS_P2;Temp;Humidity;BMP_temperature;BMP_pressure;BME280_temperature;BME280_humidity;BME280_pressure;Samples;Min_cycle;Max_cycle;Signal;HPM_P1;HPM_P2
2023/04/29 00:01:58;;;;;;;0.80;0.80;;;14.80;99.90;;;;;;5053225;28;20231;-64
2023/04/29 00:04:27;;;;;;;0.90;0.90;;;14.80;99.90;;;;;;5052806;28;20206;-63
2023/04/29 00:06:55;;;;;;;0.80;0.80;;;14.90;99.90;;;;;;5067172;28;20230;-63
2023/04/29 00:09:22;;;;;;;1.30;1.03;;;14.80;99.90;;;;;;5060426;28;20204;-65
2023/04/29 00:11:50;;;;;;;1.37;0.90;;;14.80;99.90;;;;;;5060111;28;20336;-63
2023/04/29 00:14:17;;;;;;;0.90;0.90;;;14.80;99.90;;;;;;5068637;28;20263;-64
2023/04/29 00:16:44;;;;;;;0.80;0.80;;;14.90;99.90;;;;;;5068348;28;20223;-64
2023/04/29 00:19:11;;;;;;;0.77;0.77;;;14.90;99.90;;;;;;5066772;28;20250;-64
2023/04/29 00:21:40;;;;;;;1.03;1.00;;;14.90;99.90;;;;;;5066247;28;20223;-64
2023/04/29 00:24:13;;;;;;;0.70;0.70;;;14.90;99.90;;;;;;5063731;28;20267;-62
2023/04/29 00:26:41;;;;;;;0.90;0.90;;;14.90;99.90;;;;;;5062766;28;20203;-63
2023/04/29 00:29:09;;;;;;;0.80;0.80;;;14.90;99.90;;;;;;5054964;28;20607;-64
2023/04/29 00:31:38;;;;;;;1.07;0.83;;;14.80;99.90;;;;;;5058789;28;20318;-64
2023/04/29 00:34:07;;;;;;;0.80;0.80;;;14.80;99.90;;;;;;5067558;28;20207;-63
2023/04/29 00:36:44;;;;;;;0.70;0.70;;;14.90;99.90;;;;;;5067216;28;20208;-64
2023/04/29 00:39:15;;;;;;;0.73;0.73;;;14.90;99.90;;;;;;5065704;28;20238;-62
2023/04/29 00:41:48;;;;;;;0.70;0.70;;;15.00;99.90;;;;;;5063560;28;20236;-65
2023/04/29 00:44:17;;;;;;;0.80;0.80;;;15.00;99.90;;;;;;5052979;28;20220;-63
2023/04/29 00:46:47;;;;;;;0.70;0.70;;;15.00;99.90;;;;;;5052296;28;20223;-63
2023/04/29 00:49:19;;;;;;;1.27;0.80;;;15.10;99.90;;;;;;5052122;28;20208;-66
2023/04/29 00:51:46;;;;;;;0.90;0.90;;;15.10;99.90;;;;;;5051867;28;20245;-66
2023/04/29 00:54:15;;;;;;;0.80;0.80;;;15.10;99.90;;;;;;5051535;28;20214;-62
2023/04/29 00:56:51;;;;;;;0.80;0.80;;;15.10;99.90;;;;;;5052360;28;20302;-63
2023/04/29 00:59:21;;;;;;;0.80;0.80;;;15.20;99.90;;;;;;5052000;28;20203;-64
2023/04/29 01:01:52;;;;;;;0.70;0.70;;;15.20;99.90;;;;;;5051628;28;20230;-63
2023/04/29 01:04:22;;;;;;;0.73;0.73;;;15.20;99.90;;;;;;5051884;28;20215;-63
2023/04/29 01:07:01;;;;;;;0.90;0.90;;;15.20;99.90;;;;;;5051491;28;20298;-63
2023/04/29 01:09:47;;;;;;;1.38;1.08;;;15.20;99.90;;;;;;5051452;28;20310;-64
2023/04/29 01:12:23;;;;;;;0.80;0.80;;;15.20;99.90;;;;;;5051488;28;20227;-65
2023/04/29 01:15:04;;;;;;;0.87;0.87;;;15.20;99.90;;;;;;5051451;28;20253;-63
2023/04/29 01:17:36;;;;;;;0.80;0.80;;;15.10;99.90;;;;;;5051152;28;20258;-63
2023/04/29 01:20:05;;;;;;;0.80;0.80;;;15.10;99.90;;;;;;5060298;28;20294;-63
2023/04/29 01:22:35;;;;;;;0.73;0.73;;;15.20;99.90;;;;;;5071702;28;20234;-63
2023/04/29 01:25:11;;;;;;;0.80;0.80;;;15.20;99.90;;;;;;5071237;28;20264;-64
2023/04/29 01:27:47;;;;;;;0.93;0.93;;;15.20;99.90;;;;;;5073069;28;20195;-64
2023/04/29 01:30:27;;;;;;;0.80;0.80;;;15.20;99.90;;;;;;5075478;28;20210;-63
2023/04/29 01:33:03;;;;;;;0.70;0.70;;;15.20;99.90;;;;;;5075535;28;20227;-64
2023/04/29 01:35:46;;;;;;;0.70;0.70;;;15.20;99.90;;;;;;5075876;28;20290;-63
2023/04/29 01:38:28;;;;;;;0.80;0.80;;;15.20;99.90;;;;;;5065670;28;20219;-64
2023/04/29 01:41:09;;;;;;;0.87;0.87;;;15.20;99.90;;;;;;5074410;28;20684;-63
2023/04/29 01:43:38;;;;;;;0.63;0.63;;;15.30;99.90;;;;;;5075120;28;20243;-62
2023/04/29 01:46:17;;;;;;;0.80;0.80;;;15.20;99.90;;;;;;5075716;28;20226;-62
2023/04/29 01:48:45;;;;;;;0.80;0.80;;;15.20;99.90;;;;;;5076638;28;20592;-63
2023/04/29 01:51:12;;;;;;;0.80;0.80;;;15.30;99.90;;;;;;5075829;28;20219;-63
2023/04/29 01:53:42;;;;;;;0.80;0.60;;;15.30;99.90;;;;;;5076221;28;20243;-63
2023/04/29 01:56:13;;;;;;;0.73;0.73;;;15.30;99.90;;;;;;5076582;28;20207;-62
2023/04/29 01:58:40;;;;;;;0.50;0.50;;;15.30;99.90;;;;;;5074790;28;20321;-64
2023/04/29 02:01:10;;;;;;;0.57;0.57;;;15.40;99.90;;;;;;5077577;28;20207;-63
2023/04/29 02:03:37;;;;;;;0.80;0.80;;;15.40;99.90;;;;;;5088498;28;20211;-63
2023/04/29 02:06:05;;;;;;;0.70;0.70;;;15.40;99.90;;;;;;5074649;28;20235;-63
2023/04/29 02:08:36;;;;;;;1.00;0.80;;;15.40;99.90;;;;;;5067045;28;20210;-62
2023/04/29 02:11:03;;;;;;;0.70;0.70;;;15.40;99.90;;;;;;5072509;28;20290;-63
2023/04/29 02:13:34;;;;;;;0.80;0.80;;;15.40;99.90;;;;;;5073174;28;20245;-63
2023/04/29 02:16:09;;;;;;;0.60;0.60;;;15.40;99.90;;;;;;5072785;28;20302;-62
2023/04/29 02:18:43;;;;;;;0.50;0.50;;;15.30;99.90;;;;;;5072909;28;20704;-64
2023/04/29 02:21:11;;;;;;;0.83;0.83;;;15.40;99.90;;;;;;5073892;28;20745;-63
2023/04/29 02:23:38;;;;;;;0.60;0.60;;;15.40;99.90;;;;;;5074428;28;20698;-64
2023/04/29 02:26:08;;;;;;;0.63;0.63;;;15.30;99.90;;;;;;5075619;28;20302;-64
2023/04/29 02:28:37;;;;;;;0.60;0.60;;;15.40;99.90;;;;;;5077600;28;20199;-64
2023/04/29 02:31:05;;;;;;;0.70;0.70;;;15.40;99.90;;;;;;5070910;28;20291;-62
2023/04/29 02:33:35;;;;;;;0.70;0.70;;;15.40;99.90;;;;;;5058437;28;20227;-65
2023/04/29 02:36:02;;;;;;;0.70;0.70;;;15.40;99.90;;;;;;5072077;28;20673;-62
2023/04/29 02:38:32;;;;;;;1.07;0.80;;;15.30;99.90;;;;;;5073977;28;20251;-64
2023/04/29 02:41:02;;;;;;;0.77;0.77;;;15.30;99.90;;;;;;5070319;28;20229;-63
2023/04/29 02:43:34;;;;;;;0.90;0.90;;;15.20;99.90;;;;;;5073754;28;20217;-64
2023/04/29 02:46:05;;;;;;;1.17;1.17;;;15.20;99.90;;;;;;5074088;28;20291;-64
2023/04/29 02:48:39;;;;;;;1.10;1.10;;;15.20;99.90;;;;;;5074345;28;20180;-63
2023/04/29 02:51:11;;;;;;;0.90;0.90;;;15.20;99.90;;;;;;5073725;28;20238;-62
2023/04/29 02:53:39;;;;;;;0.97;0.93;;;15.20;99.90;;;;;;5069466;28;20246;-63
2023/04/29 02:56:06;;;;;;;0.90;0.90;;;15.20;99.90;;;;;;5074415;28;20214;-64
2023/04/29 02:58:34;;;;;;;1.00;1.00;;;15.20;99.90;;;;;;5074547;28;20223;-62
2023/04/29 03:01:06;;;;;;;1.00;1.00;;;15.20;99.90;;;;;;5078394;28;20299;-64
2023/04/29 03:03:33;;;;;;;0.90;0.90;;;15.10;99.90;;;;;;5082143;28;20277;-62
2023/04/29 03:06:03;;;;;;;0.80;0.80;;;15.20;99.90;;;;;;5082534;28;20226;-64
2023/04/29 03:08:30;;;;;;;0.87;0.87;;;15.20;99.90;;;;;;5076877;28;20207;-64
2023/04/29 03:11:02;;;;;;;0.90;0.90;;;15.20;99.90;;;;;;5070988;28;20242;-63
2023/04/29 03:13:31;;;;;;;0.93;0.93;;;15.20;99.90;;;;;;5075139;28;20626;-63
2023/04/29 03:16:00;;;;;;;0.80;0.80;;;15.20;99.90;;;;;;5073561;28;20678;-64
2023/04/29 03:18:29;;;;;;;0.97;0.97;;;15.10;99.90;;;;;;5073655;28;20273;-62
2023/04/29 03:21:03;;;;;;;0.80;0.80;;;15.10;99.90;;;;;;5073446;28;20264;-64
2023/04/29 03:23:31;;;;;;;0.80;0.80;;;15.00;99.90;;;;;;5073498;28;20568;-62
2023/04/29 03:26:01;;;;;;;0.80;0.80;;;15.10;99.90;;;;;;5073764;28;20203;-63
2023/04/29 03:28:29;;;;;;;0.70;0.70;;;15.00;99.90;;;;;;5073370;28;20645;-63
2023/04/29 03:30:59;;;;;;;0.80;0.80;;;14.90;99.90;;;;;;5072693;28;20205;-65
2023/04/29 03:33:32;;;;;;;0.90;0.90;;;14.90;99.90;;;;;;5072699;28;20218;-63
2023/04/29 03:35:59;;;;;;;0.97;0.97;;;14.90;99.90;;;;;;5072955;28;20206;-64
2023/04/29 03:38:29;;;;;;;0.80;0.80;;;14.80;99.90;;;;;;5065240;28;20219;-62
2023/04/29 03:40:56;;;;;;;1.00;0.95;;;14.90;99.90;;;;;;5072173;28;20731;-64
2023/04/29 03:43:28;;;;;;;1.30;1.30;;;14.90;99.90;;;;;;5076460;28;20225;-63
2023/04/29 03:46:00;;;;;;;0.80;0.80;;;14.80;99.90;;;;;;5072269;28;20199;-64
2023/04/29 03:48:37;;;;;;;0.93;0.80;;;14.80;99.90;;;;;;5072793;28;20248;-63
2023/04/29 03:51:05;;;;;;;0.60;0.60;;;14.80;99.90;;;;;;5072124;28;20207;-63
2023/04/29 03:53:32;;;;;;;0.80;0.80;;;14.80;99.90;;;;;;5072407;28;20206;-64
2023/04/29 03:55:59;;;;;;;0.80;0.80;;;14.80;99.90;;;;;;5072638;28;20289;-64
2023/04/29 03:58:29;;;;;;;0.80;0.80;;;14.80;99.90;;;;;;5067708;28;20219;-63
2023/04/29 04:01:09;;;;;;;0.83;0.83;;;14.80;99.90;;;;;;5072280;28;20254;-63
2023/04/29 04:03:38;;;;;;;0.80;0.80;;;14.70;99.90;;;;;;5072757;28;20247;-63
2023/04/29 04:06:05;;;;;;;0.80;0.80;;;14.60;99.90;;;;;;5071970;28;20725;-64
2023/04/29 04:08:32;;;;;;;0.80;0.80;;;14.60;99.90;;;;;;5072058;28;20203;-64
2023/04/29 04:11:03;;;;;;;0.80;0.80;;;14.60;99.90;;;;;;5071647;28;20208;-64
2023/04/29 04:13:40;;;;;;;0.70;0.70;;;14.50;99.90;;;;;;5071538;28;20640;-64
2023/04/29 04:16:08;;;;;;;0.80;0.80;;;14.40;99.90;;;;;;5061191;28;20199;-63
2023/04/29 04:18:37;;;;;;;0.80;0.80;;;14.30;99.90;;;;;;5071957;28;20254;-63
2023/04/29 04:21:07;;;;;;;0.90;0.90;;;14.30;99.90;;;;;;5071735;28;20211;-65
2023/04/29 04:23:35;;;;;;;0.93;0.90;;;14.30;99.90;;;;;;5071999;28;20203;-63
2023/04/29 04:26:02;;;;;;;1.13;0.80;;;14.20;99.90;;;;;;5071926;28;20320;-63
2023/04/29 04:28:31;;;;;;;0.83;0.83;;;14.10;99.90;;;;;;5072187;28;20208;-64
2023/04/29 04:30:58;;;;;;;0.80;0.80;;;14.10;99.90;;;;;;5071419;28;20203;-63
2023/04/29 04:33:26;;;;;;;0.60;0.60;;;14.10;99.90;;;;;;5071590;28;20207;-63
2023/04/29 04:35:58;;;;;;;0.80;0.80;;;14.00;99.90;;;;;;5072229;28;20214;-64
2023/04/29 04:38:27;;;;;;;0.70;0.70;;;14.00;99.90;;;;;;5071536;28;20720;-69
2023/04/29 04:40:56;;;;;;;0.63;0.63;;;14.00;99.90;;;;;;5073969;28;20211;-64
2023/04/29 04:43:23;;;;;;;0.80;0.80;;;14.10;99.90;;;;;;5076546;28;20857;-65
2023/04/29 04:45:52;;;;;;;0.80;0.80;;;14.10;99.90;;;;;;5077046;28;20205;-64
2023/04/29 04:48:19;;;;;;;0.70;0.70;;;14.10;99.90;;;;;;5081040;28;20268;-64
2023/04/29 04:50:46;;;;;;;0.70;0.70;;;14.00;99.90;;;;;;5076682;28;20293;-62
2023/04/29 04:53:17;;;;;;;0.80;0.80;;;14.00;99.90;;;;;;5072214;28;20340;-63
2023/04/29 04:55:44;;;;;;;1.40;1.30;;;13.90;99.90;;;;;;5071623;28;20221;-62
2023/04/29 04:58:13;;;;;;;0.80;0.80;;;13.90;99.90;;;;;;5071376;28;20219;-63
2023/04/29 05:00:47;;;;;;;0.53;0.53;;;13.90;99.90;;;;;;5071199;28;20294;-64
2023/04/29 05:03:17;;;;;;;0.73;0.73;;;13.90;99.90;;;;;;5070919;28;20236;-64
2023/04/29 05:05:44;;;;;;;0.80;0.80;;;14.00;99.90;;;;;;5071431;28;20461;-63
2023/04/29 05:08:17;;;;;;;1.53;0.90;;;14.00;99.90;;;;;;5071482;28;20202;-64
2023/04/29 05:10:44;;;;;;;0.87;0.87;;;14.00;99.90;;;;;;5070995;28;20695;-63
2023/04/29 05:13:11;;;;;;;0.70;0.70;;;14.00;99.90;;;;;;5071535;28;20310;-63
2023/04/29 05:15:41;;;;;;;0.80;0.80;;;14.00;99.90;;;;;;5071000;28;20571;-62
2023/04/29 05:18:12;;;;;;;0.80;0.77;;;14.00;99.90;;;;;;5071079;28;20215;-64
2023/04/29 05:20:39;;;;;;;0.73;0.73;;;14.00;99.90;;;;;;5071585;28;20290;-63
2023/04/29 05:23:06;;;;;;;0.80;0.80;;;14.10;99.90;;;;;;5079449;28;20235;-63
2023/04/29 05:25:36;;;;;;;1.80;1.20;;;14.10;99.90;;;;;;5071038;28;20207;-63
2023/04/29 05:28:07;;;;;;;1.47;1.40;;;14.10;99.90;;;;;;5064147;28;20838;-63
2023/04/29 05:30:34;;;;;;;1.00;1.00;;;14.10;99.90;;;;;;5070625;28;20293;-64
2023/04/29 05:33:02;;;;;;;0.80;0.80;;;14.00;99.90;;;;;;5070929;28;20310;-63
2023/04/29 05:35:29;;;;;;;0.93;0.93;;;14.00;99.90;;;;;;5065266;28;20203;-63
2023/04/29 05:37:57;;;;;;;1.10;1.10;;;14.00;99.90;;;;;;5071340;28;20195;-63
2023/04/29 05:40:28;;;;;;;0.93;0.93;;;14.00;99.90;;;;;;5070053;28;20231;-64
2023/04/29 05:43:01;;;;;;;0.80;0.80;;;14.00;99.90;;;;;;5071020;28;20299;-66
2023/04/29 05:45:31;;;;;;;1.00;1.00;;;14.10;99.90;;;;;;5070862;28;20230;-62
2023/04/29 05:48:00;;;;;;;0.80;0.80;;;14.10;99.90;;;;;;5071176;28;20617;-63
2023/04/29 05:50:34;;;;;;;0.93;0.90;;;14.00;99.90;;;;;;5069419;28;20565;-62
2023/04/29 05:53:03;;;;;;;0.87;0.87;;;14.00;99.90;;;;;;5071305;28;20905;-63
2023/04/29 05:55:35;;;;;;;1.10;1.10;;;13.90;99.90;;;;;;5072350;28;20205;-64
2023/04/29 05:58:04;;;;;;;0.67;0.67;;;13.90;99.90;;;;;;5071314;28;20200;-64
2023/04/29 06:00:37;;;;;;;1.50;1.10;;;14.00;99.90;;;;;;5071007;28;20314;-64
2023/04/29 06:03:07;;;;;;;1.10;1.10;;;14.00;99.90;;;;;;5071082;28;20224;-62
2023/04/29 06:05:41;;;;;;;0.80;0.80;;;14.10;99.90;;;;;;5072267;28;20246;-63
2023/04/29 06:08:10;;;;;;;0.90;0.90;;;14.10;99.90;;;;;;5071738;28;20290;-63
2023/04/29 06:10:40;;;;;;;0.90;0.90;;;14.20;99.90;;;;;;5072043;28;20199;-65
2023/04/29 06:13:12;;;;;;;0.90;0.90;;;14.30;99.90;;;;;;5064086;28;20228;-63
2023/04/29 06:15:39;;;;;;;0.90;0.90;;;14.30;99.90;;;;;;5072963;28;20286;-63
2023/04/29 06:18:10;;;;;;;0.90;0.90;;;14.40;99.90;;;;;;5073983;28;20210;-62
2023/04/29 06:20:39;;;;;;;0.90;0.90;;;14.50;99.90;;;;;;5073706;28;20318;-65
2023/04/29 06:23:06;;;;;;;0.80;0.80;;;14.60;99.90;;;;;;5074202;28;20235;-64
2023/04/29 06:25:40;;;;;;;0.87;0.87;;;14.70;99.90;;;;;;5074066;28;20203;-62
2023/04/29 06:28:09;;;;;;;0.80;0.80;;;14.70;99.90;;;;;;5073575;28;20203;-63
2023/04/29 06:30:38;;;;;;;1.13;0.90;;;14.70;99.90;;;;;;5072588;28;20204;-63
2023/04/29 06:33:08;;;;;;;1.00;1.00;;;14.90;99.90;;;;;;5077717;28;20226;-63
2023/04/29 06:35:40;;;;;;;0.70;0.70;;;14.90;99.90;;;;;;5058265;28;20206;-64
2023/04/29 06:38:13;;;;;;;1.10;1.10;;;14.90;99.90;;;;;;5087202;28;20206;-63
2023/04/29 06:40:42;;;;;;;1.10;1.10;;;14.70;99.90;;;;;;5092023;28;20207;-63
2023/04/29 06:43:13;;;;;;;1.20;1.10;;;14.70;99.90;;;;;;5054180;28;20281;-63
2023/04/29 06:45:40;;;;;;;1.10;1.10;;;14.70;99.90;;;;;;5055169;28;20686;-65
2023/04/29 06:48:07;;;;;;;1.23;1.20;;;14.70;99.90;;;;;;5070181;28;20211;-62
2023/04/29 06:50:40;;;;;;;1.00;1.00;;;14.70;99.90;;;;;;5054379;28;20295;-63
2023/04/29 06:53:11;;;;;;;1.30;1.20;;;14.70;99.90;;;;;;5057213;28;20223;-63
2023/04/29 06:55:39;;;;;;;1.10;1.10;;;14.80;99.90;;;;;;5063209;28;20199;-63
2023/04/29 06:58:06;;;;;;;1.10;1.10;;;14.70;99.90;;;;;;5064933;28;20208;-64
2023/04/29 07:00:34;;;;;;;1.40;1.30;;;14.70;99.90;;;;;;5063464;28;20247;-64
2023/04/29 07:03:01;;;;;;;1.10;1.10;;;14.70;99.90;;;;;;5065812;28;20223;-63
2023/04/29 07:05:29;;;;;;;1.00;1.00;;;14.60;99.90;;;;;;5054318;28;20239;-63
2023/04/29 07:07:57;;;;;;;1.10;1.10;;;14.60;99.90;;;;;;5053392;28;20285;-64
2023/04/29 07:10:29;;;;;;;1.13;1.13;;;14.70;99.90;;;;;;5053222;28;20649;-63
2023/04/29 07:12:58;;;;;;;1.10;1.10;;;14.70;99.90;;;;;;5055620;28;20259;-64
2023/04/29 07:15:29;;;;;;;1.00;1.00;;;14.70;99.90;;;;;;5053416;28;20215;-65
2023/04/29 07:18:00;;;;;;;1.20;1.10;;;14.70;99.90;;;;;;5053634;28;20290;-63
2023/04/29 07:20:33;;;;;;;1.50;1.40;;;14.70;99.90;;;;;;5053015;28;20714;-63
2023/04/29 07:23:02;;;;;;;1.53;1.20;;;14.80;99.90;;;;;;5053945;28;20315;-64
2023/04/29 07:25:31;;;;;;;1.37;1.10;;;14.80;99.90;;;;;;5066570;28;20203;-64
2023/04/29 07:28:08;;;;;;;1.37;1.30;;;14.90;99.90;;;;;;5073821;28;20277;-65
2023/04/29 07:30:38;;;;;;;1.20;1.20;;;15.00;99.90;;;;;;5064558;28;20203;-64
2023/04/29 07:33:06;;;;;;;1.10;1.10;;;15.00;99.90;;;;;;5063316;28;20227;-64
2023/04/29 07:35:40;;;;;;;1.10;1.10;;;15.00;99.90;;;;;;5067419;28;20273;-64
2023/04/29 07:38:16;;;;;;;1.20;1.20;;;15.10;99.90;;;;;;5072770;28;20207;-63
2023/04/29 07:40:43;;;;;;;1.20;1.20;;;15.10;99.90;;;;;;5071225;28;20234;-64
2023/04/29 07:43:10;;;;;;;1.10;1.10;;;15.00;99.90;;;;;;5067376;28;20234;-63
2023/04/29 07:45:37;;;;;;;1.20;1.10;;;15.10;99.90;;;;;;5072308;28;20229;-64
2023/04/29 07:48:06;;;;;;;1.00;1.00;;;15.40;99.90;;;;;;5084669;28;20301;-64
2023/04/29 07:50:35;;;;;;;1.23;1.23;;;15.60;99.90;;;;;;5070179;28;20195;-62
2023/04/29 07:53:02;;;;;;;1.10;1.10;;;15.60;99.90;;;;;;5055291;28;20228;-63
2023/04/29 07:55:29;;;;;;;1.10;1.10;;;15.60;99.90;;;;;;5069359;28;20668;-64
2023/04/29 07:57:57;;;;;;;1.20;1.20;;;15.70;99.90;;;;;;5061186;28;20207;-64
2023/04/29 08:00:24;;;;;;;1.00;1.00;;;15.80;99.90;;;;;;5063509;28;20568;-64
2023/04/29 08:02:51;;;;;;;1.10;1.10;;;15.90;99.90;;;;;;5070018;28;20223;-64
2023/04/29 08:05:20;;;;;;;0.90;0.90;;;15.90;99.90;;;;;;5071663;28;20207;-63
2023/04/29 08:07:47;;;;;;;1.20;1.20;;;16.00;99.90;;;;;;5077548;28;20203;-61
2023/04/29 08:10:14;;;;;;;1.33;1.23;;;16.00;99.90;;;;;;5071440;28;20256;-63
2023/04/29 08:12:41;;;;;;;1.93;1.23;;;16.00;99.90;;;;;;5072446;28;20231;-61
2023/04/29 08:15:09;;;;;;;1.03;0.97;;;16.00;99.90;;;;;;5072119;28;20214;-64
2023/04/29 08:17:35;;;;;;;1.20;1.20;;;15.80;99.90;;;;;;5072978;28;20211;-64
2023/04/29 08:20:02;;;;;;;1.17;1.17;;;15.80;99.90;;;;;;5072740;28;20713;-62
2023/04/29 08:22:30;;;;;;;1.20;1.20;;;15.80;99.90;;;;;;5073623;28;20241;-63
2023/04/29 08:24:57;;;;;;;1.30;1.30;;;15.80;99.90;;;;;;5071378;28;20605;-63
2023/04/29 08:27:24;;;;;;;1.20;1.20;;;15.70;99.90;;;;;;5071822;28;20207;-62
2023/04/29 08:29:51;;;;;;;1.40;1.40;;;15.70;99.90;;;;;;5071538;28;20298;-62
2023/04/29 08:32:18;;;;;;;1.60;1.50;;;15.60;99.90;;;;;;5072202;28;20222;-63
2023/04/29 08:34:45;;;;;;;1.70;1.60;;;15.80;99.90;;;;;;5072270;28;20208;-63
2023/04/29 08:37:11;;;;;;;1.80;1.70;;;15.50;99.90;;;;;;5071955;28;20207;-64
2023/04/29 08:39:42;;;;;;;1.50;1.50;;;15.50;99.90;;;;;;5076472;28;20293;-63
2023/04/29 08:42:09;;;;;;;1.60;1.50;;;15.60;99.90;;;;;;5076715;28;20227;-64
2023/04/29 08:44:36;;;;;;;1.63;1.50;;;16.30;99.90;;;;;;5077113;28;20215;-63
2023/04/29 08:47:03;;;;;;;1.30;1.30;;;16.30;99.90;;;;;;5074526;28;20203;-64
2023/04/29 08:49:32;;;;;;;1.33;1.30;;;16.50;99.90;;;;;;5071787;28;20202;-64
2023/04/29 08:51:59;;;;;;;1.50;1.50;;;16.60;99.90;;;;;;5071369;28;20319;-66
2023/04/29 08:54:27;;;;;;;1.60;1.50;;;16.60;99.90;;;;;;5074981;28;20271;-63
2023/04/29 08:56:56;;;;;;;1.13;1.13;;;16.50;99.90;;;;;;5082651;28;20211;-64
2023/04/29 08:59:24;;;;;;;1.30;1.30;;;16.50;99.90;;;;;;5084495;28;20209;-64
2023/04/29 09:01:53;;;;;;;1.50;1.40;;;16.40;99.90;;;;;;5086306;28;20231;-64
2023/04/29 09:04:30;;;;;;;1.47;1.47;;;16.40;99.90;;;;;;5084830;28;20209;-65
2023/04/29 09:06:59;;;;;;;1.30;1.30;;;16.50;99.90;;;;;;5074333;28;20215;-64
2023/04/29 09:09:26;;;;;;;1.50;1.40;;;16.30;99.90;;;;;;5077647;28;20638;-64
2023/04/29 09:11:54;;;;;;;1.20;1.20;;;16.30;99.90;;;;;;5075470;28;20729;-65
2023/04/29 09:14:22;;;;;;;1.43;1.33;;;16.40;99.90;;;;;;5075931;28;20203;-64
2023/04/29 09:16:50;;;;;;;1.27;1.27;;;16.50;99.90;;;;;;5075478;28;20209;-65
2023/04/29 09:19:30;;;;;;;1.20;1.20;;;16.40;99.90;;;;;;5071282;28;20203;-65
2023/04/29 09:21:58;;;;;;;1.00;1.00;;;16.30;99.90;;;;;;5051427;28;20285;-63
2023/04/29 09:24:26;;;;;;;1.10;1.10;;;16.20;99.90;;;;;;5051631;28;20200;-64
2023/04/29 09:26:54;;;;;;;1.17;1.17;;;16.20;99.90;;;;;;5052254;28;20223;-65
2023/04/29 09:29:22;;;;;;;1.00;1.00;;;16.10;99.90;;;;;;5054291;28;20211;-64
2023/04/29 09:31:49;;;;;;;1.03;1.03;;;15.90;99.90;;;;;;5055663;28;20660;-63
2023/04/29 09:34:16;;;;;;;1.10;1.10;;;16.10;99.90;;;;;;5054616;28;20214;-64
2023/04/29 09:36:45;;;;;;;1.20;1.20;;;16.30;99.90;;;;;;5055756;28;20207;-63
2023/04/29 09:39:14;;;;;;;1.00;1.00;;;16.20;99.90;;;;;;5052614;28;20621;-64
2023/04/29 09:41:42;;;;;;;0.90;0.90;;;16.30;99.90;;;;;;5051329;28;20289;-64
2023/04/29 09:44:11;;;;;;;0.90;0.90;;;16.50;99.90;;;;;;5050888;28;20273;-65
2023/04/29 09:46:38;;;;;;;1.00;1.00;;;16.70;99.90;;;;;;5055856;28;20203;-64
2023/04/29 09:49:22;;;;;;;1.00;1.00;;;16.60;99.90;;;;;;5055873;28;20310;-64
2023/04/29 09:51:53;;;;;;;1.02;1.02;;;16.50;99.90;;;;;;5054884;28;20592;-65
2023/04/29 09:54:21;;;;;;;0.93;0.93;;;16.40;99.90;;;;;;5054595;28;20207;-64
2023/04/29 09:56:50;;;;;;;1.10;1.10;;;16.40;99.90;;;;;;5056415;28;20266;-65
2023/04/29 09:59:19;;;;;;;1.10;1.10;;;16.40;99.90;;;;;;5059802;28;20239;-65
2023/04/29 10:01:48;;;;;;;1.10;1.10;;;16.40;99.90;;;;;;5061570;28;20227;-64
2023/04/29 10:04:17;;;;;;;1.20;1.20;;;16.50;99.90;;;;;;5064349;28;20208;-64
2023/04/29 10:06:45;;;;;;;1.10;1.10;;;16.40;99.90;;;;;;5063130;28;20616;-65
2023/04/29 10:09:16;;;;;;;0.97;0.97;;;16.40;99.90;;;;;;5060128;28;20758;-64
2023/04/29 10:11:43;;;;;;;0.97;0.97;;;16.50;99.90;;;;;;5060610;28;20220;-64
2023/04/29 10:14:12;;;;;;;1.10;1.10;;;16.30;99.90;;;;;;5054830;28;20253;-65
2023/04/29 10:16:46;;;;;;;1.20;1.20;;;16.50;99.90;;;;;;5054669;28;20697;-64
2023/04/29 10:19:18;;;;;;;1.10;1.10;;;16.50;99.90;;;;;;5054626;28;20208;-65
2023/04/29 10:21:47;;;;;;;0.90;0.90;;;16.50;99.90;;;;;;5054316;28;20254;-64
2023/04/29 10:24:15;;;;;;;1.23;1.23;;;16.60;99.90;;;;;;5053839;28;20215;-66
2023/04/29 10:26:43;;;;;;;1.17;1.17;;;16.70;99.90;;;;;;5054896;28;20212;-65
2023/04/29 10:29:14;;;;;;;1.20;1.20;;;16.70;99.90;;;;;;5053591;28;20204;-64
2023/04/29 10:31:44;;;;;;;1.00;1.00;;;16.60;99.90;;;;;;5054257;28;20219;-65
2023/04/29 10:34:12;;;;;;;1.40;1.30;;;16.40;99.90;;;;;;5053604;28;20204;-64
2023/04/29 10:36:39;;;;;;;1.10;1.10;;;16.60;99.90;;;;;;5054115;28;20211;-63
2023/04/29 10:39:12;;;;;;;1.30;1.30;;;16.60;99.90;;;;;;5052843;28;20667;-64
2023/04/29 10:41:45;;;;;;;1.13;1.13;;;16.60;99.90;;;;;;5053513;28;20268;-64
2023/04/29 10:44:12;;;;;;;1.10;1.10;;;16.80;99.90;;;;;;5053583;28;20279;-65
2023/04/29 10:46:39;;;;;;;1.20;1.20;;;16.70;99.90;;;;;;5053573;28;20203;-63
2023/04/29 10:49:08;;;;;;;1.30;1.30;;;16.60;99.90;;;;;;5053083;28;20207;-65
2023/04/29 10:51:39;;;;;;;1.10;1.10;;;16.70;99.90;;;;;;5053385;28;20255;-64
2023/04/29 10:54:09;;;;;;;1.10;1.10;;;16.60;99.90;;;;;;5053251;28;20207;-64
2023/04/29 10:56:41;;;;;;;1.40;1.40;;;16.50;99.90;;;;;;5053534;28;20215;-64
2023/04/29 10:59:12;;;;;;;1.33;1.33;;;16.60;99.90;;;;;;5052665;28;20210;-66
2023/04/29 11:01:44;;;;;;;1.20;1.10;;;16.40;99.90;;;;;;5052990;28;20625;-64
2023/04/29 11:04:13;;;;;;;1.50;1.30;;;16.50;99.90;;;;;;5053335;28;20208;-64
2023/04/29 11:06:43;;;;;;;1.00;1.00;;;16.80;99.90;;;;;;5054602;28;20220;-65
2023/04/29 11:09:13;;;;;;;1.10;1.10;;;16.90;99.90;;;;;;5053264;28;20208;-64
2023/04/29 11:12:01;;;;;;;1.10;1.10;;;17.00;99.90;;;;;;5053304;28;20216;-64
2023/04/29 11:14:31;;;;;;;1.27;1.27;;;17.20;99.90;;;;;;5053529;28;20204;-64
2023/04/29 11:17:01;;;;;;;1.07;1.07;;;17.30;99.90;;;;;;5054067;28;20219;-65
2023/04/29 11:19:34;;;;;;;1.20;1.20;;;17.40;99.90;;;;;;5052496;28;20204;-65
2023/04/29 11:22:16;;;;;;;1.10;1.10;;;17.50;99.90;;;;;;5055535;28;20702;-64
2023/04/29 11:24:54;;;;;;;1.03;1.03;;;17.50;99.90;;;;;;5054218;28;20273;-63
2023/04/29 11:27:24;;;;;;;0.93;0.93;;;17.70;99.90;;;;;;5058413;28;20204;-63
2023/04/29 11:29:54;;;;;;;1.13;1.10;;;17.70;99.90;;;;;;5055792;28;20204;-64
2023/04/29 11:32:22;;;;;;;1.10;1.10;;;17.60;99.90;;;;;;5052305;28;20220;-66
2023/04/29 11:34:50;;;;;;;1.00;1.00;;;17.20;99.90;;;;;;5052327;28;20440;-64
2023/04/29 11:37:21;;;;;;;0.83;0.83;;;17.40;99.90;;;;;;5052467;28;20208;-64
2023/04/29 11:39:49;;;;;;;1.10;1.10;;;17.60;99.90;;;;;;5051626;28;20300;-65
2023/04/29 11:42:20;;;;;;;1.10;1.10;;;17.40;99.90;;;;;;5052766;28;20259;-64
2023/04/29 11:44:47;;;;;;;1.10;1.10;;;17.20;99.90;;;;;;5052080;28;20222;-63
2023/04/29 11:47:14;;;;;;;1.20;1.20;;;17.00;99.90;;;;;;5070094;28;20201;-64
2023/04/29 11:49:41;;;;;;;1.00;1.00;;;17.10;99.90;;;;;;5079628;28;20749;-64
2023/04/29 11:52:10;;;;;;;1.00;1.00;;;17.00;99.90;;;;;;5072372;28;20264;-64
2023/04/29 11:54:37;;;;;;;0.90;0.90;;;17.00;99.90;;;;;;5071880;28;20685;-63
2023/04/29 11:57:04;;;;;;;0.60;0.60;;;17.10;99.90;;;;;;5072196;28;20221;-63
2023/04/29 11:59:32;;;;;;;0.80;0.80;;;17.30;99.90;;;;;;5071423;28;20745;-63
2023/04/29 12:02:00;;;;;;;0.90;0.90;;;17.40;99.90;;;;;;5072188;28;20764;-63
2023/04/29 12:04:27;;;;;;;1.03;1.03;;;17.50;99.90;;;;;;5072239;28;20250;-65
2023/04/29 12:06:56;;;;;;;0.87;0.87;;;17.40;99.90;;;;;;5072558;28;20283;-64
2023/04/29 12:09:25;;;;;;;1.00;1.00;;;17.60;99.90;;;;;;5071982;28;20211;-64
2023/04/29 12:11:52;;;;;;;0.80;0.80;;;17.70;99.90;;;;;;5070885;28;20226;-64
2023/04/29 12:14:19;;;;;;;1.00;1.00;;;17.90;99.90;;;;;;5071975;28;20203;-65
2023/04/29 12:16:46;;;;;;;1.00;1.00;;;17.90;99.90;;;;;;5072144;28;20199;-64
2023/04/29 12:19:13;;;;;;;0.93;0.93;;;17.80;99.90;;;;;;5072168;28;20218;-64
2023/04/29 12:21:48;;;;;;;0.90;0.90;;;17.90;99.90;;;;;;5066376;28;20219;-65
2023/04/29 12:24:16;;;;;;;1.03;1.03;;;18.00;99.90;;;;;;5062514;28;20238;-63
2023/04/29 12:26:45;;;;;;;0.90;0.90;;;18.00;99.90;;;;;;5060164;28;20282;-63
2023/04/29 12:29:13;;;;;;;1.00;1.00;;;18.20;99.90;;;;;;5061723;28;20257;-64
2023/04/29 12:31:40;;;;;;;1.00;1.00;;;18.50;99.90;;;;;;5063576;28;20283;-64
2023/04/29 12:34:08;;;;;;;0.80;0.80;;;18.50;99.90;;;;;;5068368;28;20629;-64
2023/04/29 12:36:36;;;;;;;0.60;0.60;;;18.80;99.90;;;;;;5068351;28;20265;-64
2023/04/29 12:39:08;;;;;;;1.00;1.00;;;18.70;99.90;;;;;;5077703;28;20202;-64
2023/04/29 12:41:40;;;;;;;0.90;0.90;;;18.60;99.90;;;;;;5074274;28;20228;-64
2023/04/29 12:44:10;;;;;;;0.90;0.90;;;18.60;99.90;;;;;;5071657;28;20215;-64
2023/04/29 12:46:38;;;;;;;0.90;0.90;;;18.50;99.90;;;;;;5071395;28;20233;-63
2023/04/29 12:49:05;;;;;;;0.90;0.90;;;18.40;99.90;;;;;;5069260;28;20209;-65
2023/04/29 12:51:33;;;;;;;0.80;0.80;;;18.30;99.90;;;;;;5071444;28;20762;-63
2023/04/29 12:54:00;;;;;;;0.90;0.90;;;18.30;99.90;;;;;;5071593;28;20215;-64
2023/04/29 12:56:27;;;;;;;2.20;1.03;;;18.30;99.90;;;;;;5065857;28;20279;-64
2023/04/29 12:58:54;;;;;;;0.80;0.80;;;18.30;99.90;;;;;;5060446;28;20211;-63
2023/04/29 13:01:22;;;;;;;0.90;0.90;;;18.30;99.90;;;;;;5061715;28;20229;-63